Time;durP1;ratioP1;P1;durP2;ratioP2;P2;SDS_P1;SDS_P2;PMS_P1;PMS_P2;Temp;Humidity;BMP_temperature;BMP_pressure;BME280_temperature;BME280_humidity;BME280_pressure;Samples;Min_cycle;Max_cycle;Signal;HPM_P1;HPM_P2
2022/04/25 00:01:15;;;;;;;0.00;0.00;;;8.50;99.90;;;;;;5042455;28;20553;-61
2022/04/25 00:03:41;;;;;;;0.00;0.00;;;8.50;99.90;;;;;;5041112;28;20069;-62
2022/04/25 00:06:07;;;;;;;0.00;0.00;;;8.50;99.90;;;;;;5043179;28;20227;-62
2022/04/25 00:08:32;;;;;;;0.00;0.00;;;8.50;99.90;;;;;;5057475;28;20032;-62
2022/04/25 00:10:58;;;;;;;0.00;0.00;;;8.50;99.90;;;;;;5042493;28;20063;-62
2022/04/25 00:13:24;;;;;;;0.00;0.00;;;8.60;99.90;;;;;;5042092;28;20124;-62
2022/04/25 00:15:50;;;;;;;0.00;0.00;;;8.60;99.90;;;;;;5042275;28;20182;-62
2022/04/25 00:18:15;;;;;;;0.00;0.00;;;8.70;99.90;;;;;;5040779;28;20033;-62
2022/04/25 00:20:41;;;;;;;0.00;0.00;;;8.60;99.90;;;;;;5042477;28;20542;-62
2022/04/25 00:23:07;;;;;;;0.00;0.00;;;8.60;99.90;;;;;;5042861;28;20508;-62
2022/04/25 00:25:34;;;;;;;0.00;0.00;;;8.50;99.90;;;;;;5041964;28;20041;-62
2022/04/25 00:28:01;;;;;;;0.00;0.00;;;8.50;99.90;;;;;;5040832;28;20041;-63
2022/04/25 00:30:28;;;;;;;0.00;0.00;;;8.40;99.90;;;;;;5040543;28;20056;-62
2022/04/25 00:32:55;;;;;;;0.00;0.00;;;8.50;99.90;;;;;;5041468;28;20174;-62
2022/04/25 00:35:22;;;;;;;0.00;0.00;;;8.40;99.90;;;;;;5041513;28;20052;-62
2022/04/25 00:37:47;;;;;;;0.00;0.00;;;8.30;99.90;;;;;;5041933;28;20053;-63
2022/04/25 00:40:14;;;;;;;0.00;0.00;;;8.30;99.90;;;;;;5041672;28;20048;-61
2022/04/25 00:42:39;;;;;;;0.00;0.00;;;8.30;99.90;;;;;;5041638;28;20781;-62
2022/04/25 00:45:05;;;;;;;0.00;0.00;;;8.30;99.90;;;;;;5043584;28;20135;-62
2022/04/25 00:47:32;;;;;;;0.00;0.00;;;8.40;99.90;;;;;;5048525;28;20499;-62
2022/04/25 00:49:57;;;;;;;0.00;0.00;;;8.40;99.90;;;;;;5040725;28;20053;-62
2022/04/25 00:52:23;;;;;;;0.00;0.00;;;8.40;99.90;;;;;;5041262;28;20040;-62
2022/04/25 00:54:49;;;;;;;0.00;0.00;;;8.50;99.90;;;;;;5056738;28;20037;-62
2022/04/25 00:57:15;;;;;;;0.00;0.00;;;8.60;99.90;;;;;;5040843;28;20044;-62
2022/04/25 00:59:41;;;;;;;0.00;0.00;;;8.50;99.90;;;;;;5041535;28;20037;-62
2022/04/25 01:02:08;;;;;;;0.00;0.00;;;8.50;99.90;;;;;;5039689;28;20092;-62
2022/04/25 01:04:33;;;;;;;0.00;0.00;;;8.50;99.90;;;;;;5041041;28;20147;-62
2022/04/25 01:06:59;;;;;;;0.00;0.00;;;8.50;99.90;;;;;;5041578;28;20820;-62
2022/04/25 01:09:25;;;;;;;0.00;0.00;;;8.50;99.90;;;;;;5055306;22;20053;-62
2022/04/25 01:11:52;;;;;;;0.00;0.00;;;8.50;99.90;;;;;;5058556;28;20049;-61
2022/04/25 01:14:23;;;;;;;0.00;0.00;;;8.50;99.90;;;;;;5047708;28;20048;-60
2022/04/25 01:16:49;;;;;;;0.00;0.00;;;8.50;99.90;;;;;;5039166;28;20045;-61
2022/04/25 01:19:14;;;;;;;0.00;0.00;;;8.50;99.90;;;;;;5040766;28;20176;-61
2022/04/25 01:21:49;;;;;;;0.00;0.00;;;8.50;99.90;;;;;;5039781;28;20045;-61
2022/04/25 01:27:15;;;;;;;0.00;0.00;;;8.30;99.90;;;;;;5041302;28;20044;-61
2022/04/25 01:29:41;;;;;;;0.00;0.00;;;8.30;99.90;;;;;;5040950;28;20459;-61
2022/04/25 01:32:08;;;;;;;0.00;0.00;;;8.30;99.90;;;;;;5039895;28;20045;-61
2022/04/25 01:34:36;;;;;;;0.00;0.00;;;8.30;99.90;;;;;;5040514;28;20063;-61
2022/04/25 01:37:05;;;;;;;0.00;0.00;;;8.30;99.90;;;;;;5040952;28;20048;-61
2022/04/25 01:39:31;;;;;;;0.00;0.00;;;8.30;99.90;;;;;;5040516;28;20270;-61
2022/04/25 01:41:56;;;;;;;0.00;0.00;;;8.30;99.90;;;;;;5040299;28;20410;-61
2022/04/25 01:44:22;;;;;;;0.00;0.00;;;8.30;99.90;;;;;;5039125;28;20049;-61
2022/04/25 01:46:48;;;;;;;0.00;0.00;;;8.40;99.90;;;;;;5051210;28;20044;-61
2022/04/25 01:49:13;;;;;;;0.00;0.00;;;8.30;99.90;;;;;;5040471;28;20037;-61
2022/04/25 01:51:42;;;;;;;0.00;0.00;;;8.30;99.90;;;;;;5040036;28;20522;-61
2022/04/25 01:54:07;;;;;;;0.00;0.00;;;8.20;99.90;;;;;;5041136;28;20048;-61
2022/04/25 01:56:33;;;;;;;0.00;0.00;;;8.30;99.90;;;;;;5039872;28;20055;-61
2022/04/25 01:58:58;;;;;;;0.10;0.10;;;8.40;99.90;;;;;;5040931;28;20566;-61
2022/04/25 02:01:24;;;;;;;0.00;0.00;;;8.30;99.90;;;;;;5039644;28;20041;-60
2022/04/25 02:03:50;;;;;;;0.00;0.00;;;8.30;99.90;;;;;;5039436;28;20052;-61
2022/04/25 02:06:15;;;;;;;0.00;0.00;;;9.00;99.90;;;;;;5040116;28;20068;-61
2022/04/25 02:08:41;;;;;;;0.00;0.00;;;8.20;99.90;;;;;;5039572;28;20136;-61
2022/04/25 02:11:22;;;;;;;0.00;0.00;;;8.20;99.90;;;;;;5041029;28;20439;-61
2022/04/25 02:13:54;;;;;;;0.00;0.00;;;8.20;99.90;;;;;;5039458;28;20552;-61
2022/04/25 02:16:24;;;;;;;0.00;0.00;;;8.20;99.90;;;;;;5039289;28;20041;-61
2022/04/25 02:18:51;;;;;;;0.00;0.00;;;8.20;99.90;;;;;;5040031;28;20481;-61
2022/04/25 02:21:17;;;;;;;0.00;0.00;;;8.20;99.90;;;;;;5040295;28;20037;-60
2022/04/25 02:23:42;;;;;;;0.00;0.00;;;9.30;99.90;;;;;;5040491;28;20807;-61
2022/04/25 02:26:09;;;;;;;0.00;0.00;;;8.20;99.90;;;;;;5040865;28;20041;-63
2022/04/25 02:28:35;;;;;;;0.00;0.00;;;8.20;99.90;;;;;;5040215;28;20041;-63
2022/04/25 02:31:04;;;;;;;0.00;0.00;;;8.20;99.90;;;;;;5040158;28;20065;-64
2022/04/25 02:33:30;;;;;;;0.00;0.00;;;8.20;99.90;;;;;;5039714;28;20492;-62
2022/04/25 02:35:56;;;;;;;0.00;0.00;;;8.20;99.90;;;;;;5040363;28;20037;-61
2022/04/25 02:38:21;;;;;;;0.00;0.00;;;8.80;99.90;;;;;;5040220;28;20041;-61
2022/04/25 02:41:04;;;;;;;0.00;0.00;;;8.20;99.90;;;;;;5040289;28;20146;-61
2022/04/25 02:43:34;;;;;;;0.00;0.00;;;8.10;99.90;;;;;;5039970;28;20053;-61
2022/04/25 02:46:01;;;;;;;0.00;0.00;;;8.10;99.90;;;;;;5045054;28;20055;-62
2022/04/25 02:48:27;;;;;;;0.00;0.00;;;8.10;99.90;;;;;;5045129;28;20098;-61
2022/04/25 02:50:53;;;;;;;0.00;0.00;;;8.20;99.90;;;;;;5055333;28;20045;-61
2022/04/25 02:53:19;;;;;;;0.00;0.00;;;8.10;99.90;;;;;;5055575;28;20051;-61
2022/04/25 02:55:44;;;;;;;0.00;0.00;;;8.10;99.90;;;;;;5044091;28;20091;-61
2022/04/25 02:58:10;;;;;;;0.00;0.00;;;8.10;99.90;;;;;;5043647;28;20052;-61
2022/04/25 03:00:36;;;;;;;0.08;0.08;;;8.10;99.90;;;;;;5044058;28;20041;-61
2022/04/25 03:03:01;;;;;;;0.00;0.00;;;8.10;99.90;;;;;;5043317;28;20052;-61
2022/04/25 03:05:28;;;;;;;0.00;0.00;;;8.10;99.90;;;;;;5043014;28;20041;-60
2022/04/25 03:07:54;;;;;;;0.00;0.00;;;8.10;99.90;;;;;;5043639;28;20053;-62
2022/04/25 03:10:19;;;;;;;0.00;0.00;;;8.10;99.90;;;;;;5043315;28;20047;-61
2022/04/25 03:12:45;;;;;;;0.00;0.00;;;8.00;99.90;;;;;;5044263;28;20041;-61
2022/04/25 03:15:11;;;;;;;0.00;0.00;;;8.10;99.90;;;;;;5043498;28;20044;-61
2022/04/25 03:17:38;;;;;;;0.00;0.00;;;8.10;99.90;;;;;;5042049;28;20091;-61
2022/04/25 03:20:04;;;;;;;0.00;0.00;;;8.00;99.90;;;;;;5043693;28;20052;-61
2022/04/25 03:22:30;;;;;;;0.00;0.00;;;8.00;99.90;;;;;;5043028;28;20589;-61
2022/04/25 03:24:56;;;;;;;0.00;0.00;;;8.00;99.90;;;;;;5058762;28;20041;-61
2022/04/25 03:27:21;;;;;;;0.00;0.00;;;8.00;99.90;;;;;;5042966;28;20049;-61
2022/04/25 03:29:47;;;;;;;0.00;0.00;;;8.10;99.90;;;;;;5043336;28;20434;-61
2022/04/25 03:32:12;;;;;;;0.00;0.00;;;8.10;99.90;;;;;;5041771;28;20048;-61
2022/04/25 03:34:38;;;;;;;0.00;0.00;;;8.00;99.90;;;;;;5043746;28;21209;-61
2022/04/25 03:37:04;;;;;;;0.00;0.00;;;8.00;99.90;;;;;;5043184;28;20490;-61
2022/04/25 03:39:29;;;;;;;0.00;0.00;;;8.20;99.90;;;;;;5042927;28;20114;-60
2022/04/25 03:41:55;;;;;;;0.00;0.00;;;8.00;99.90;;;;;;5043452;28;20076;-61
2022/04/25 03:44:21;;;;;;;0.00;0.00;;;8.00;99.90;;;;;;5042487;28;20715;-61
2022/04/25 03:46:47;;;;;;;0.00;0.00;;;8.00;99.90;;;;;;5060538;28;20067;-61
2022/04/25 03:49:15;;;;;;;0.00;0.00;;;8.00;99.90;;;;;;5042746;28;20121;-61
2022/04/25 03:51:41;;;;;;;0.00;0.00;;;8.10;99.90;;;;;;5043146;28;20048;-61
2022/04/25 03:54:07;;;;;;;0.00;0.00;;;8.10;99.90;;;;;;5043369;28;20059;-61
2022/04/25 03:59:17;;;;;;;0.00;0.00;;;8.10;99.90;;;;;;5042195;28;20053;-61
2022/04/25 04:01:42;;;;;;;0.00;0.00;;;8.10;99.90;;;;;;5042314;28;20067;-61
2022/04/25 04:04:08;;;;;;;0.00;0.00;;;8.00;99.90;;;;;;5043028;28;20471;-61
2022/04/25 04:06:35;;;;;;;0.00;0.00;;;8.00;99.90;;;;;;5041186;28;20171;-61
2022/04/25 04:09:44;;;;;;;0.00;0.00;;;8.00;99.90;;;;;;5042474;28;20060;-61
2022/04/25 04:11:47;;;;;;;0.00;0.00;;;8.00;99.90;;;;;;5042149;28;20040;-61
2022/04/25 04:14:12;;;;;;;0.00;0.00;;;8.00;99.90;;;;;;5042303;28;20044;-61
2022/04/25 04:16:38;;;;;;;0.00;0.00;;;8.00;99.90;;;;;;5040953;28;20053;-61
2022/04/25 04:19:05;;;;;;;0.00;0.00;;;8.00;99.90;;;;;;5040998;28;20047;-61
2022/04/25 04:21:30;;;;;;;0.00;0.00;;;8.10;99.90;;;;;;5041767;28;20474;-61
2022/04/25 04:23:57;;;;;;;0.00;0.00;;;8.00;99.90;;;;;;5042309;28;20098;-61
2022/04/25 04:26:22;;;;;;;0.00;0.00;;;8.00;99.90;;;;;;5056948;28;20102;-61
2022/04/25 04:28:48;;;;;;;0.43;0.35;;;8.00;99.90;;;;;;5041610;28;20238;-60
2022/04/25 04:31:13;;;;;;;0.00;0.00;;;8.00;99.90;;;;;;5041084;28;20056;-61
2022/04/25 04:33:39;;;;;;;0.00;0.00;;;8.00;99.90;;;;;;5042633;28;20078;-61
2022/04/25 04:36:17;;;;;;;0.00;0.00;;;8.50;99.90;;;;;;5042390;28;20072;-61
2022/04/25 04:38:43;;;;;;;0.00;0.00;;;8.00;99.90;;;;;;5042074;28;20041;-61
2022/04/25 04:41:09;;;;;;;0.00;0.00;;;8.10;99.90;;;;;;5041921;28;20041;-62
2022/04/25 04:43:35;;;;;;;0.00;0.00;;;8.30;99.90;;;;;;5041962;28;20052;-61
2022/04/25 04:46:00;;;;;;;0.00;0.00;;;8.10;99.90;;;;;;5046190;28;20048;-61
2022/04/25 04:48:26;;;;;;;0.00;0.00;;;8.00;99.90;;;;;;5047916;28;20045;-61
2022/04/25 04:50:55;;;;;;;0.00;0.00;;;8.10;99.90;;;;;;5041969;28;20499;-61
2022/04/25 04:53:22;;;;;;;0.00;0.00;;;8.00;99.90;;;;;;5040809;28;20060;-61
2022/04/25 04:55:48;;;;;;;0.00;0.00;;;8.00;99.90;;;;;;5041966;28;20469;-61
2022/04/25 04:58:13;;;;;;;0.00;0.00;;;9.10;99.90;;;;;;5041532;28;20060;-61
2022/04/25 05:00:39;;;;;;;0.00;0.00;;;8.10;99.90;;;;;;5057148;28;20110;-61
2022/04/25 05:03:05;;;;;;;0.00;0.00;;;7.60;99.90;;;;;;5041290;28;20048;-62
2022/04/25 05:05:31;;;;;;;0.00;0.00;;;8.00;99.90;;;;;;5040737;28;20048;-61
2022/04/25 05:07:56;;;;;;;0.10;0.10;;;8.00;99.90;;;;;;5041288;28;20709;-61
2022/04/25 05:10:22;;;;;;;0.00;0.00;;;8.00;99.90;;;;;;5040987;28;20053;-62
2022/04/25 05:12:54;;;;;;;0.00;0.00;;;7.90;99.90;;;;;;5041439;28;20518;-61
2022/04/25 05:15:20;;;;;;;0.00;0.00;;;8.00;99.90;;;;;;5040875;28;20175;-60
2022/04/25 05:17:48;;;;;;;0.00;0.00;;;7.80;99.90;;;;;;5040029;28;20045;-61
2022/04/25 05:20:14;;;;;;;0.00;0.00;;;7.80;99.90;;;;;;5040931;28;20045;-61
2022/04/25 05:22:44;;;;;;;0.00;0.00;;;7.90;99.90;;;;;;5041147;28;20041;-61
2022/04/25 05:25:16;;;;;;;0.00;0.00;;;7.90;99.90;;;;;;5041209;28;20053;-61
2022/04/25 05:27:47;;;;;;;0.00;0.00;;;7.90;99.90;;;;;;5041161;28;20037;-61
2022/04/25 05:30:14;;;;;;;0.00;0.00;;;8.20;99.90;;;;;;5040935;28;20037;-61
2022/04/25 05:32:48;;;;;;;0.00;0.00;;;8.00;99.90;;;;;;5040256;28;20048;-61
2022/04/25 05:35:15;;;;;;;0.00;0.00;;;8.00;99.90;;;;;;5040653;28;20437;-61
2022/04/25 05:37:40;;;;;;;0.00;0.00;;;8.00;99.90;;;;;;5041005;28;20403;-61
2022/04/25 05:40:07;;;;;;;0.00;0.00;;;8.10;99.90;;;;;;5039098;28;20041;-61
2022/04/25 05:42:34;;;;;;;0.00;0.00;;;8.10;99.90;;;;;;5040850;28;20051;-61
2022/04/25 05:45:00;;;;;;;0.00;0.00;;;8.00;99.90;;;;;;5041781;28;20143;-61
2022/04/25 05:47:26;;;;;;;0.00;0.00;;;7.90;99.90;;;;;;5049782;28;20041;-61
2022/04/25 05:52:36;;;;;;;0.00;0.00;;;7.90;99.90;;;;;;5040679;28;20049;-61
2022/04/25 05:55:03;;;;;;;0.00;0.00;;;8.00;99.90;;;;;;5040774;28;20751;-61
2022/04/25 05:57:28;;;;;;;0.00;0.00;;;8.00;99.90;;;;;;5038964;28;20443;-61
2022/04/25 05:59:54;;;;;;;0.00;0.00;;;8.00;99.90;;;;;;5040532;28;20044;-61
2022/04/25 06:02:19;;;;;;;0.00;0.00;;;8.00;99.90;;;;;;5038952;28;20839;-61
2022/04/25 06:04:45;;;;;;;0.00;0.00;;;8.00;99.90;;;;;;5040524;28;20641;-61
2022/04/25 06:07:11;;;;;;;0.00;0.00;;;8.00;99.90;;;;;;5040521;28;20049;-61
2022/04/25 06:09:37;;;;;;;0.00;0.00;;;8.10;99.90;;;;;;5040339;28;20056;-62
2022/04/25 06:12:03;;;;;;;0.00;0.00;;;7.90;99.90;;;;;;5055926;28;20271;-62
2022/04/25 06:14:31;;;;;;;0.00;0.00;;;7.90;99.90;;;;;;5038305;28;20569;-62
2022/04/25 06:16:59;;;;;;;0.00;0.00;;;7.90;99.90;;;;;;5039318;28;20045;-61
2022/04/25 06:19:25;;;;;;;0.00;0.00;;;7.90;99.90;;;;;;5040024;28;20136;-61
2022/04/25 06:21:51;;;;;;;0.00;0.00;;;7.90;99.90;;;;;;5040484;28;20466;-61
2022/04/25 06:24:17;;;;;;;0.00;0.00;;;7.80;99.90;;;;;;5039892;28;20037;-61
2022/04/25 06:26:42;;;;;;;0.00;0.00;;;7.90;99.90;;;;;;5040037;28;20051;-61
2022/04/25 06:29:08;;;;;;;0.00;0.00;;;8.40;99.90;;;;;;5042609;28;20770;-61
2022/04/25 06:31:34;;;;;;;0.00;0.00;;;7.90;99.90;;;;;;5043371;28;20055;-61
2022/04/25 06:34:00;;;;;;;0.08;0.08;;;7.90;99.90;;;;;;5044337;28;20045;-62
2022/04/25 06:36:26;;;;;;;0.00;0.00;;;7.90;99.90;;;;;;5043753;28;20052;-61
2022/04/25 06:38:52;;;;;;;0.00;0.00;;;8.00;99.90;;;;;;5059340;28;20110;-62
2022/04/25 06:41:18;;;;;;;0.00;0.00;;;8.00;99.90;;;;;;5043307;28;20555;-61
2022/04/25 06:43:43;;;;;;;0.00;0.00;;;8.00;99.90;;;;;;5044088;28;20485;-61
2022/04/25 06:46:09;;;;;;;0.00;0.00;;;7.90;99.90;;;;;;5049862;28;20070;-61
2022/04/25 06:48:35;;;;;;;0.00;0.00;;;8.00;99.90;;;;;;5049446;28;20095;-62
2022/04/25 06:51:01;;;;;;;0.00;0.00;;;8.00;99.90;;;;;;5044034;28;20044;-61
2022/04/25 06:53:27;;;;;;;0.00;0.00;;;8.00;99.90;;;;;;5042945;28;20548;-62
2022/04/25 06:55:53;;;;;;;0.00;0.00;;;8.00;99.90;;;;;;5043943;28;20072;-61
2022/04/25 06:58:18;;;;;;;0.00;0.00;;;7.90;99.90;;;;;;5043298;28;20048;-60
2022/04/25 07:00:46;;;;;;;0.00;0.00;;;8.00;99.90;;;;;;5043266;28;20116;-60
2022/04/25 07:03:12;;;;;;;0.00;0.00;;;7.90;99.90;;;;;;5043782;28;20052;-61
2022/04/25 07:05:37;;;;;;;0.00;0.00;;;7.90;99.90;;;;;;5043743;28;20033;-61
2022/04/25 07:08:04;;;;;;;0.00;0.00;;;8.90;99.90;;;;;;5043209;28;20495;-60
2022/04/25 07:10:29;;;;;;;0.00;0.00;;;7.90;99.90;;;;;;5041982;28;20778;-60
2022/04/25 07:12:56;;;;;;;0.00;0.00;;;7.90;99.90;;;;;;5043503;28;20103;-59
2022/04/25 07:15:23;;;;;;;0.00;0.00;;;7.90;99.90;;;;;;5043164;28;20067;-61
2022/04/25 07:17:54;;;;;;;0.00;0.00;;;8.00;99.90;;;;;;5042608;28;20126;-60
2022/04/25 07:20:21;;;;;;;0.00;0.00;;;7.50;99.90;;;;;;5042931;28;20083;-60
2022/04/25 07:30:59;;;;;;;0.00;0.00;;;7.90;99.90;;;;;;5042603;28;20333;-63
2022/04/25 07:33:26;;;;;;;0.00;0.00;;;7.90;99.90;;;;;;5042789;28;20041;-63
2022/04/25 07:35:53;;;;;;;0.00;0.00;;;7.90;99.90;;;;;;5042504;28;20116;-63
2022/04/25 07:38:19;;;;;;;0.00;0.00;;;7.90;99.90;;;;;;5042952;28;20590;-63
2022/04/25 07:40:45;;;;;;;0.00;0.00;;;8.00;99.90;;;;;;5040962;28;20053;-63
2022/04/25 07:43:11;;;;;;;0.00;0.00;;;7.90;99.90;;;;;;5042944;28;20060;-61
2022/04/25 07:45:36;;;;;;;0.00;0.00;;;7.90;99.90;;;;;;5060890;28;20173;-61
2022/04/25 07:48:02;;;;;;;0.00;0.00;;;7.90;99.90;;;;;;5053021;28;20506;-61
2022/04/25 07:50:28;;;;;;;0.00;0.00;;;8.00;99.90;;;;;;5062404;28;20044;-61
2022/04/25 07:52:54;;;;;;;0.00;0.00;;;8.00;99.90;;;;;;5062868;28;20051;-64
2022/04/25 07:55:19;;;;;;;0.00;0.00;;;8.00;99.90;;;;;;5062287;28;20108;-64
2022/04/25 07:57:45;;;;;;;0.00;0.00;;;8.10;99.90;;;;;;5062502;28;20086;-63
2022/04/25 08:00:11;;;;;;;0.00;0.00;;;8.10;99.90;;;;;;5061800;28;20048;-63
2022/04/25 08:02:37;;;;;;;0.00;0.00;;;8.10;99.90;;;;;;5060632;28;20072;-61
2022/04/25 08:05:03;;;;;;;0.00;0.00;;;8.20;99.90;;;;;;5062344;28;20427;-61
2022/04/25 08:07:30;;;;;;;0.00;0.00;;;8.10;99.90;;;;;;5061992;28;20045;-62
2022/04/25 08:09:55;;;;;;;0.00;0.00;;;8.00;99.90;;;;;;5061283;28;20045;-62
2022/04/25 08:18:01;;;;;;;0.00;0.00;;;8.20;99.90;;;;;;5061130;28;20041;-61
2022/04/25 08:20:36;;;;;;;0.00;0.00;;;8.30;99.90;;;;;;5061752;28;20094;-61
2022/04/25 08:23:03;;;;;;;0.00;0.00;;;8.30;99.90;;;;;;5062232;28;20048;-62
2022/04/25 08:25:30;;;;;;;0.00;0.00;;;8.30;99.90;;;;;;5061806;28;20044;-63
2022/04/25 08:28:00;;;;;;;0.00;0.00;;;8.30;99.90;;;;;;5061955;28;20047;-62
2022/04/25 08:30:26;;;;;;;0.00;0.00;;;8.30;99.90;;;;;;5060982;28;20147;-61
2022/04/25 08:32:54;;;;;;;0.00;0.00;;;8.60;99.90;;;;;;5062060;28;20438;-63
2022/04/25 08:35:21;;;;;;;0.00;0.00;;;9.50;99.90;;;;;;5061401;28;20045;-61
2022/04/25 08:37:47;;;;;;;0.00;0.00;;;8.50;99.90;;;;;;5060323;28;20520;-62
2022/04/25 08:40:13;;;;;;;0.00;0.00;;;8.60;99.90;;;;;;5061041;28;20116;-61
2022/04/25 08:42:39;;;;;;;0.00;0.00;;;8.50;99.90;;;;;;5061962;28;20723;-62
2022/04/25 08:45:06;;;;;;;0.00;0.00;;;8.60;99.90;;;;;;5060097;28;20036;-61
2022/04/25 08:47:37;;;;;;;0.00;0.00;;;8.60;99.90;;;;;;5058415;28;20095;-62
2022/04/25 08:50:03;;;;;;;0.00;0.00;;;8.60;99.90;;;;;;5061905;28;20482;-61
2022/04/25 08:52:30;;;;;;;0.00;0.00;;;8.80;99.90;;;;;;5060153;28;20052;-61
2022/04/25 08:55:00;;;;;;;0.00;0.00;;;9.00;99.90;;;;;;5061405;28;20093;-61
2022/04/25 08:57:28;;;;;;;0.00;0.00;;;9.10;99.90;;;;;;5061112;28;20050;-61
2022/04/25 08:59:56;;;;;;;0.00;0.00;;;9.30;99.90;;;;;;5059985;28;20048;-61
2022/04/25 09:02:22;;;;;;;0.00;0.00;;;9.50;99.90;;;;;;5060389;28;20391;-62
2022/04/25 09:04:49;;;;;;;0.00;0.00;;;9.40;99.90;;;;;;5060394;28;20036;-62
2022/04/25 09:07:18;;;;;;;0.00;0.00;;;9.80;99.90;;;;;;5060718;28;20049;-62
2022/04/25 09:09:44;;;;;;;0.00;0.00;;;9.60;99.90;;;;;;5060918;28;20064;-62
2022/04/25 09:12:12;;;;;;;0.00;0.00;;;9.70;99.90;;;;;;5060921;28;20053;-62
2022/04/25 09:14:40;;;;;;;0.00;0.00;;;9.80;99.90;;;;;;5061405;28;20051;-62
2022/04/25 09:17:06;;;;;;;0.00;0.00;;;9.90;99.90;;;;;;5058673;28;20074;-63
2022/04/25 09:19:33;;;;;;;0.00;0.00;;;10.00;99.90;;;;;;5060557;28;20048;-62
2022/04/25 09:21:59;;;;;;;0.00;0.00;;;10.10;99.90;;;;;;5060905;28;20049;-63
2022/04/25 09:24:27;;;;;;;0.00;0.00;;;10.20;99.90;;;;;;5060624;28;20376;-62
2022/04/25 09:27:09;;;;;;;0.00;0.00;;;10.10;99.90;;;;;;5061039;28;20409;-62
2022/04/25 09:29:37;;;;;;;0.00;0.00;;;10.20;99.90;;;;;;5060800;28;20072;-62
2022/04/25 09:32:03;;;;;;;0.00;0.00;;;10.10;99.90;;;;;;5060152;28;20648;-63
2022/04/25 09:37:14;;;;;;;0.00;0.00;;;10.10;99.90;;;;;;5060518;28;20053;-61
2022/04/25 09:39:40;;;;;;;0.00;0.00;;;10.20;99.90;;;;;;5060867;28;20040;-64
2022/04/25 09:42:07;;;;;;;0.00;0.00;;;10.10;99.90;;;;;;5061225;28;20048;-64
2022/04/25 09:45:08;;;;;;;0.00;0.00;;;10.20;99.90;;;;;;5060332;28;20040;-63
2022/04/25 09:47:36;;;;;;;0.00;0.00;;;10.20;99.90;;;;;;5008558;28;20049;-63
2022/04/25 09:50:06;;;;;;;0.00;0.00;;;10.30;99.90;;;;;;5052439;28;20068;-63
2022/04/25 09:52:34;;;;;;;0.00;0.00;;;10.50;99.90;;;;;;5059513;28;20174;-62
2022/04/25 09:55:17;;;;;;;0.00;0.00;;;10.60;99.90;;;;;;5060594;28;20048;-64
2022/04/25 09:57:46;;;;;;;0.00;0.00;;;10.60;99.90;;;;;;5060445;28;20408;-61
2022/04/25 10:00:14;;;;;;;0.00;0.00;;;10.70;99.90;;;;;;5059650;28;20041;-64
2022/04/25 10:02:41;;;;;;;0.00;0.00;;;10.70;99.90;;;;;;5059443;28;20040;-64
2022/04/25 10:05:14;;;;;;;0.00;0.00;;;10.80;99.90;;;;;;5060748;28;20475;-64
2022/04/25 10:07:41;;;;;;;0.00;0.00;;;10.90;99.90;;;;;;5060136;28;20052;-62
2022/04/25 10:10:08;;;;;;;0.00;0.00;;;10.90;99.90;;;;;;5060466;28;20032;-62
2022/04/25 10:12:36;;;;;;;0.00;0.00;;;11.00;99.90;;;;;;5059585;28;20053;-62
2022/04/25 10:15:07;;;;;;;0.00;0.00;;;11.20;99.90;;;;;;5059976;28;20087;-62
2022/04/25 10:17:38;;;;;;;0.00;0.00;;;11.00;99.90;;;;;;5059541;28;20040;-62
2022/04/25 10:20:05;;;;;;;0.00;0.00;;;11.10;99.90;;;;;;5060225;28;20032;-62
2022/04/25 10:22:31;;;;;;;0.00;0.00;;;11.10;99.90;;;;;;5058471;28;20045;-62
2022/04/25 10:24:56;;;;;;;0.00;0.00;;;11.20;99.90;;;;;;5058210;28;20136;-62
2022/04/25 10:27:28;;;;;;;0.00;0.00;;;11.40;99.90;;;;;;5059938;28;20047;-62
2022/04/25 10:29:58;;;;;;;0.00;0.00;;;12.30;99.90;;;;;;5059902;28;20101;-62
2022/04/25 10:32:25;;;;;;;0.00;0.00;;;12.60;99.90;;;;;;5059656;28;20052;-62
2022/04/25 10:34:59;;;;;;;0.10;0.10;;;12.50;99.90;;;;;;5059437;28;20044;-62
2022/04/25 10:37:29;;;;;;;;;;;12.50;99.90;;;;;;5059902;28;20044;-62
2022/04/25 10:39:56;;;;;;;0.00;0.00;;;12.40;99.90;;;;;;5060136;28;19999;-62
2022/04/25 10:45:06;;;;;;;0.00;0.00;;;12.50;99.90;;;;;;5058083;28;20049;-62
2022/04/25 10:47:32;;;;;;;0.00;0.00;;;12.60;99.90;;;;;;5049032;28;20641;-62
2022/04/25 10:49:57;;;;;;;0.00;0.00;;;12.80;99.90;;;;;;5040046;28;20109;-63
2022/04/25 10:53:17;;;;;;;0.00;0.00;;;13.00;99.90;;;;;;5039725;28;20101;-62
2022/04/25 10:55:30;;;;;;;0.00;0.00;;;13.00;99.90;;;;;;5035304;28;20124;-62
2022/04/25 10:58:04;;;;;;;0.00;0.00;;;13.00;99.90;;;;;;5039698;28;20048;-63
2022/04/25 11:00:36;;;;;;;0.00;0.00;;;13.00;99.90;;;;;;5038103;28;20136;-63
2022/04/25 11:03:23;;;;;;;0.00;0.00;;;13.00;99.90;;;;;;5040110;28;20068;-62
2022/04/25 11:06:00;;;;;;;0.00;0.00;;;12.90;99.90;;;;;;5038571;28;20076;-62
2022/04/25 11:08:31;;;;;;;0.00;0.00;;;12.90;99.90;;;;;;5039087;28;20128;-62
2022/04/25 11:10:57;;;;;;;0.00;0.00;;;12.90;99.90;;;;;;5039895;28;20041;-63
2022/04/25 11:13:26;;;;;;;0.00;0.00;;;12.80;99.90;;;;;;5039655;28;20601;-62
2022/04/25 11:15:57;;;;;;;0.00;0.00;;;12.90;99.90;;;;;;5042386;28;20072;-62
2022/04/25 11:18:50;;;;;;;0.00;0.00;;;13.10;99.90;;;;;;5042655;28;20041;-62
2022/04/25 11:21:16;;;;;;;0.00;0.00;;;13.00;99.90;;;;;;5042949;28;20128;-64
2022/04/25 11:23:44;;;;;;;0.00;0.00;;;13.10;99.90;;;;;;5043481;28;20080;-62
2022/04/25 11:26:30;;;;;;;0.00;0.00;;;13.00;99.90;;;;;;5043221;28;20187;-61
2022/04/25 11:29:01;;;;;;;0.00;0.00;;;13.20;99.90;;;;;;5053488;28;20487;-61
2022/04/25 11:31:31;;;;;;;0.00;0.00;;;13.10;99.90;;;;;;5058400;28;20051;-61
2022/04/25 11:34:00;;;;;;;0.00;0.00;;;13.10;99.90;;;;;;5062462;28;20067;-62
2022/04/25 11:36:26;;;;;;;0.00;0.00;;;13.20;99.90;;;;;;5060700;28;20094;-60
2022/04/25 11:41:37;;;;;;;0.00;0.00;;;13.60;99.90;;;;;;5062216;28;20814;-65
2022/04/25 11:44:04;;;;;;;0.00;0.00;;;13.80;99.90;;;;;;5062881;28;20087;-64
2022/04/25 11:46:32;;;;;;;0.20;0.20;;;13.80;99.90;;;;;;5055398;28;20646;-64
2022/04/25 11:48:58;;;;;;;0.35;0.25;;;13.80;99.90;;;;;;5054440;28;20079;-65
2022/04/25 11:51:25;;;;;;;0.00;0.00;;;14.00;99.90;;;;;;5062453;28;20075;-65
2022/04/25 11:53:58;;;;;;;0.00;0.00;;;14.10;99.90;;;;;;5062460;28;20052;-68
2022/04/25 11:56:26;;;;;;;0.10;0.10;;;14.40;99.90;;;;;;5061849;28;20494;-67
2022/04/25 11:58:52;;;;;;;0.00;0.00;;;14.60;99.90;;;;;;5062159;28;20036;-67
2022/04/25 12:01:37;;;;;;;0.00;0.00;;;14.70;99.90;;;;;;5061666;28;20442;-66
2022/04/25 12:04:35;;;;;;;0.00;0.00;;;15.10;99.90;;;;;;5041558;28;20044;-67
2022/04/25 12:07:09;;;;;;;0.00;0.00;;;14.40;99.90;;;;;;5034200;28;20100;-67
2022/04/25 12:15:34;;;;;;;0.00;0.00;;;14.30;99.90;;;;;;5040544;28;20057;-68
2022/04/25 12:18:20;;;;;;;0.00;0.00;;;14.20;99.90;;;;;;5041917;28;20045;-68
2022/04/25 12:21:02;;;;;;;0.00;0.00;;;14.20;99.90;;;;;;5041680;28;20044;-66
2022/04/25 12:23:33;;;;;;;0.00;0.00;;;14.40;99.90;;;;;;5041346;28;20076;-67
2022/04/25 12:26:03;;;;;;;0.00;0.00;;;14.40;99.90;;;;;;5056545;28;20458;-67
2022/04/25 12:28:30;;;;;;;0.00;0.00;;;14.10;99.90;;;;;;5061453;28;20120;-67
2022/04/25 12:31:05;;;;;;;0.00;0.00;;;14.20;99.90;;;;;;5061217;28;20045;-67
2022/04/25 12:33:38;;;;;;;0.00;0.00;;;14.10;99.90;;;;;;5061592;28;20048;-66
2022/04/25 12:36:18;;;;;;;0.22;0.20;;;13.90;99.90;;;;;;5061437;28;20127;-67
2022/04/25 12:38:56;;;;;;;0.00;0.00;;;13.80;99.90;;;;;;5060130;28;20123;-63
2022/04/25 12:41:25;;;;;;;0.00;0.00;;;13.60;99.90;;;;;;5061002;28;20402;-63
2022/04/25 12:43:53;;;;;;;0.00;0.00;;;13.40;99.90;;;;;;5061350;28;20521;-64
2022/04/25 12:46:38;;;;;;;0.00;0.00;;;13.30;99.90;;;;;;5052738;28;20544;-63
2022/04/25 12:49:20;;;;;;;0.00;0.00;;;13.30;99.90;;;;;;5042841;28;20041;-63
2022/04/25 12:51:52;;;;;;;0.20;0.20;;;13.20;99.90;;;;;;5041424;28;20072;-64
2022/04/25 12:54:22;;;;;;;0.00;0.00;;;13.10;99.90;;;;;;5040115;28;20098;-64
2022/04/25 12:56:50;;;;;;;0.00;0.00;;;13.10;99.90;;;;;;5041149;28;20124;-63
2022/04/25 12:59:26;;;;;;;0.00;0.00;;;13.00;99.90;;;;;;5040898;28;20090;-63
2022/04/25 13:02:04;;;;;;;0.00;0.00;;;12.90;99.90;;;;;;5055984;28;20059;-65
2022/04/25 13:04:30;;;;;;;0.00;0.00;;;13.00;99.90;;;;;;5056076;28;20103;-65
2022/04/25 13:06:56;;;;;;;1.45;1.20;;;12.90;99.90;;;;;;5041285;28;20048;-64
2022/04/25 13:09:21;;;;;;;0.00;0.00;;;13.00;99.90;;;;;;5044325;28;20538;-63
2022/04/25 13:11:47;;;;;;;0.00;0.00;;;12.90;99.90;;;;;;5048031;28;20033;-64
2022/04/25 13:14:14;;;;;;;0.00;0.00;;;12.90;99.90;;;;;;5047045;28;20033;-64
2022/04/25 13:16:40;;;;;;;0.00;0.00;;;12.90;99.90;;;;;;5046953;28;20056;-64
2022/04/25 13:19:06;;;;;;;0.00;0.00;;;12.80;99.90;;;;;;5048307;28;20527;-64
2022/04/25 13:21:34;;;;;;;0.00;0.00;;;12.80;99.90;;;;;;5047671;28;20040;-64
2022/04/25 13:24:00;;;;;;;0.00;0.00;;;12.80;99.90;;;;;;5048112;28;20036;-64
2022/04/25 13:26:26;;;;;;;0.00;0.00;;;12.80;99.90;;;;;;5047305;28;20400;-64
2022/04/25 13:28:52;;;;;;;0.00;0.00;;;12.90;99.90;;;;;;5047266;28;20036;-65
2022/04/25 13:31:17;;;;;;;0.00;0.00;;;12.90;99.90;;;;;;5046780;28;20705;-65
2022/04/25 13:33:43;;;;;;;0.00;0.00;;;13.00;99.90;;;;;;5047878;28;20040;-64
2022/04/25 13:36:09;;;;;;;0.00;0.00;;;13.00;99.90;;;;;;5047941;28;20110;-65